sensor_id;sensor_type;location;lat;lon;timestamp;temperature;humidity
19365;DHT22;9818;48.382;10.850;2024-03-23T00:52:47;19.80;99.30
19365;DHT22;9818;48.382;10.850;2024-03-23T00:55:13;19.80;78.50
19365;DHT22;9818;48.382;10.850;2024-03-23T00:57:39;19.80;58.90
19365;DHT22;9818;48.382;10.850;2024-03-23T01:00:06;19.80;40.40
19365;DHT22;9818;48.382;10.850;2024-03-23T01:02:33;19.70;42.90
19365;DHT22;9818;48.382;10.850;2024-03-23T01:04:59;19.70;20.30
19365;DHT22;9818;48.382;10.850;2024-03-23T01:07:25;19.70;37.80
19365;DHT22;9818;48.382;10.850;2024-03-23T01:09:54;19.70;21.20
19365;DHT22;9818;48.382;10.850;2024-03-23T01:12:20;19.70;27.90
19365;DHT22;9818;48.382;10.850;2024-03-23T01:14:46;19.70;22.30
19365;DHT22;9818;48.382;10.850;2024-03-23T01:17:12;19.70;24.60
19365;DHT22;9818;48.382;10.850;2024-03-23T01:19:38;19.70;24.90
19365;DHT22;9818;48.382;10.850;2024-03-23T01:22:05;19.70;24.20
19365;DHT22;9818;48.382;10.850;2024-03-23T01:24:31;19.70;25.40
19365;DHT22;9818;48.382;10.850;2024-03-23T01:27:00;19.70;23.50
19365;DHT22;9818;48.382;10.850;2024-03-23T01:29:26;19.70;13.70
19365;DHT22;9818;48.382;10.850;2024-03-23T01:31:52;19.70;10.60
19365;DHT22;9818;48.382;10.850;2024-03-23T01:34:18;19.70;15.60
19365;DHT22;9818;48.382;10.850;2024-03-23T01:36:45;19.70;12.80
19365;DHT22;9818;48.382;10.850;2024-03-23T01:39:11;19.70;1.00
19365;DHT22;9818;48.382;10.850;2024-03-23T01:41:37;19.70;1.00
19365;DHT22;9818;48.382;10.850;2024-03-23T01:44:07;19.70;1.00
19365;DHT22;9818;48.382;10.850;2024-03-23T01:46:33;19.70;1.00
19365;DHT22;9818;48.382;10.850;2024-03-23T01:48:59;19.60;1.00
19365;DHT22;9818;48.382;10.850;2024-03-23T01:51:26;19.70;1.00
19365;DHT22;9818;48.382;10.850;2024-03-23T01:53:53;19.60;1.00
19365;DHT22;9818;48.382;10.850;2024-03-23T01:56:20;19.60;1.00
19365;DHT22;9818;48.382;10.850;2024-03-23T01:58:46;19.60;1.00
19365;DHT22;9818;48.382;10.850;2024-03-23T02:01:15;19.60;1.00
19365;DHT22;9818;48.382;10.850;2024-03-23T02:03:41;19.60;1.00
19365;DHT22;9818;48.382;10.850;2024-03-23T02:06:08;19.60;1.00
19365;DHT22;9818;48.382;10.850;2024-03-23T02:08:34;19.60;1.00
19365;DHT22;9818;48.382;10.850;2024-03-23T02:11:01;19.60;1.00
19365;DHT22;9818;48.382;10.850;2024-03-23T02:13:27;19.60;1.00
19365;DHT22;9818;48.382;10.850;2024-03-23T02:15:53;19.60;1.00
19365;DHT22;9818;48.382;10.850;2024-03-23T02:18:22;19.60;1.00
19365;DHT22;9818;48.382;10.850;2024-03-23T02:20:48;19.60;1.00
19365;DHT22;9818;48.382;10.850;2024-03-23T02:23:17;19.60;1.00
19365;DHT22;9818;48.382;10.850;2024-03-23T02:25:43;19.60;1.00
19365;DHT22;9818;48.382;10.850;2024-03-23T02:28:10;19.60;1.00
19365;DHT22;9818;48.382;10.850;2024-03-23T02:30:36;19.60;1.00
19365;DHT22;9818;48.382;10.850;2024-03-23T02:33:03;19.60;1.00
19365;DHT22;9818;48.382;10.850;2024-03-23T02:35:29;19.60;1.00
19365;DHT22;9818;48.382;10.850;2024-03-23T02:37:56;19.60;1.00
19365;DHT22;9818;48.382;10.850;2024-03-23T02:40:24;19.60;1.00
19365;DHT22;9818;48.382;10.850;2024-03-23T02:42:51;19.60;1.00
19365;DHT22;9818;48.382;10.850;2024-03-23T02:45:17;19.60;1.00
19365;DHT22;9818;48.382;10.850;2024-03-23T02:47:43;19.60;1.00
19365;DHT22;9818;48.382;10.850;2024-03-23T02:50:09;19.60;1.00
19365;DHT22;9818;48.382;10.850;2024-03-23T02:52:36;19.60;1.00
19365;DHT22;9818;48.382;10.850;2024-03-23T02:55:02;19.60;1.00
19365;DHT22;9818;48.382;10.850;2024-03-23T02:57:31;19.60;1.00
19365;DHT22;9818;48.382;10.850;2024-03-23T02:59:57;19.60;1.00
19365;DHT22;9818;48.382;10.850;2024-03-23T03:02:23;19.50;1.00
19365;DHT22;9818;48.382;10.850;2024-03-23T03:04:50;19.50;1.00
19365;DHT22;9818;48.382;10.850;2024-03-23T03:07:16;19.50;1.00
19365;DHT22;9818;48.382;10.850;2024-03-23T03:09:42;19.50;1.00
19365;DHT22;9818;48.382;10.850;2024-03-23T03:12:08;19.50;1.00
19365;DHT22;9818;48.382;10.850;2024-03-23T03:14:37;19.50;1.00
19365;DHT22;9818;48.382;10.850;2024-03-23T03:17:03;19.50;1.00
19365;DHT22;9818;48.382;10.850;2024-03-23T03:19:30;19.50;1.00
19365;DHT22;9818;48.382;10.850;2024-03-23T03:21:56;19.50;1.00
19365;DHT22;9818;48.382;10.850;2024-03-23T03:24:22;19.50;1.00
19365;DHT22;9818;48.382;10.850;2024-03-23T03:26:48;19.50;1.00
19365;DHT22;9818;48.382;10.850;2024-03-23T03:29:15;19.50;1.00
19365;DHT22;9818;48.382;10.850;2024-03-23T03:31:44;19.50;1.00
19365;DHT22;9818;48.382;10.850;2024-03-23T03:34:10;19.50;1.00
19365;DHT22;9818;48.382;10.850;2024-03-23T03:36:37;19.50;1.00
19365;DHT22;9818;48.382;10.850;2024-03-23T03:39:03;19.50;1.00
19365;DHT22;9818;48.382;10.850;2024-03-23T03:41:29;19.50;1.00
19365;DHT22;9818;48.382;10.850;2024-03-23T03:43:55;19.50;1.00
19365;DHT22;9818;48.382;10.850;2024-03-23T03:46:21;19.50;1.00
19365;DHT22;9818;48.382;10.850;2024-03-23T03:48:50;19.50;1.00
19365;DHT22;9818;48.382;10.850;2024-03-23T03:51:16;19.50;1.00
19365;DHT22;9818;48.382;10.850;2024-03-23T03:53:43;19.50;1.00
19365;DHT22;9818;48.382;10.850;2024-03-23T03:56:09;19.50;1.00
19365;DHT22;9818;48.382;10.850;2024-03-23T03:58:35;19.50;1.00
19365;DHT22;9818;48.382;10.850;2024-03-23T04:01:01;19.50;1.00
19365;DHT22;9818;48.382;10.850;2024-03-23T04:03:27;19.40;1.00
19365;DHT22;9818;48.382;10.850;2024-03-23T04:05:56;19.40;1.00
19365;DHT22;9818;48.382;10.850;2024-03-23T04:08:22;19.40;1.00
19365;DHT22;9818;48.382;10.850;2024-03-23T04:10:48;19.40;1.00
19365;DHT22;9818;48.382;10.850;2024-03-23T04:13:15;19.40;1.00
19365;DHT22;9818;48.382;10.850;2024-03-23T04:15:41;19.40;1.00
19365;DHT22;9818;48.382;10.850;2024-03-23T04:18:07;19.40;1.00
19365;DHT22;9818;48.382;10.850;2024-03-23T04:20:34;19.40;1.00
19365;DHT22;9818;48.382;10.850;2024-03-23T04:23:03;19.40;1.00
19365;DHT22;9818;48.382;10.850;2024-03-23T04:25:29;19.40;1.00
19365;DHT22;9818;48.382;10.850;2024-03-23T04:27:55;19.40;1.00
19365;DHT22;9818;48.382;10.850;2024-03-23T04:30:21;19.40;1.00
19365;DHT22;9818;48.382;10.850;2024-03-23T04:32:47;19.40;1.00
19365;DHT22;9818;48.382;10.850;2024-03-23T04:35:13;19.40;1.00
19365;DHT22;9818;48.382;10.850;2024-03-23T04:37:40;19.40;1.00
19365;DHT22;9818;48.382;10.850;2024-03-23T04:40:10;19.40;1.00
19365;DHT22;9818;48.382;10.850;2024-03-23T04:42:36;19.40;1.00
19365;DHT22;9818;48.382;10.850;2024-03-23T04:45:03;19.40;1.00
19365;DHT22;9818;48.382;10.850;2024-03-23T04:47:29;19.40;1.00
19365;DHT22;9818;48.382;10.850;2024-03-23T04:49:56;19.40;1.00
19365;DHT22;9818;48.382;10.850;2024-03-23T04:52:22;19.40;1.00
19365;DHT22;9818;48.382;10.850;2024-03-23T04:54:48;19.40;1.00
19365;DHT22;9818;48.382;10.850;2024-03-23T04:57:17;19.40;1.00
19365;DHT22;9818;48.382;10.850;2024-03-23T04:59:43;19.40;1.00
19365;DHT22;9818;48.382;10.850;2024-03-23T05:02:09;19.40;1.00
19365;DHT22;9818;48.382;10.850;2024-03-23T05:04:35;19.40;1.00
19365;DHT22;9818;48.382;10.850;2024-03-23T05:07:02;19.40;1.00
19365;DHT22;9818;48.382;10.850;2024-03-23T05:09:29;19.40;1.00
19365;DHT22;9818;48.382;10.850;2024-03-23T05:11:55;19.40;1.00
19365;DHT22;9818;48.382;10.850;2024-03-23T05:14:24;19.40;1.00
19365;DHT22;9818;48.382;10.850;2024-03-23T05:16:51;19.40;1.00
19365;DHT22;9818;48.382;10.850;2024-03-23T05:19:17;19.40;1.00
19365;DHT22;9818;48.382;10.850;2024-03-23T05:21:43;19.40;1.00
19365;DHT22;9818;48.382;10.850;2024-03-23T05:24:09;19.40;1.00
19365;DHT22;9818;48.382;10.850;2024-03-23T05:26:36;19.40;1.00
19365;DHT22;9818;48.382;10.850;2024-03-23T05:29:02;19.30;1.00
19365;DHT22;9818;48.382;10.850;2024-03-23T05:31:32;19.30;1.00
19365;DHT22;9818;48.382;10.850;2024-03-23T05:33:58;19.30;1.00
19365;DHT22;9818;48.382;10.850;2024-03-23T05:36:24;19.30;1.00
19365;DHT22;9818;48.382;10.850;2024-03-23T05:38:51;19.30;1.00
19365;DHT22;9818;48.382;10.850;2024-03-23T05:41:17;19.30;1.00
19365;DHT22;9818;48.382;10.850;2024-03-23T05:43:43;19.30;1.00
19365;DHT22;9818;48.382;10.850;2024-03-23T05:46:09;19.30;1.00
19365;DHT22;9818;48.382;10.850;2024-03-23T05:48:38;19.30;1.00
19365;DHT22;9818;48.382;10.850;2024-03-23T05:51:04;19.30;1.00
19365;DHT22;9818;48.382;10.850;2024-03-23T05:53:31;19.30;1.00
19365;DHT22;9818;48.382;10.850;2024-03-23T05:56:01;19.30;1.00
19365;DHT22;9818;48.382;10.850;2024-03-23T05:58:29;19.30;1.00
19365;DHT22;9818;48.382;10.850;2024-03-23T06:00:57;19.30;1.00
19365;DHT22;9818;48.382;10.850;2024-03-23T06:03:24;19.30;1.00
19365;DHT22;9818;48.382;10.850;2024-03-23T06:05:53;19.30;1.00
19365;DHT22;9818;48.382;10.850;2024-03-23T06:08:19;19.30;1.00
19365;DHT22;9818;48.382;10.850;2024-03-23T06:10:46;19.30;1.00
19365;DHT22;9818;48.382;10.850;2024-03-23T06:13:12;19.30;1.00
19365;DHT22;9818;48.382;10.850;2024-03-23T06:15:38;19.30;1.00
19365;DHT22;9818;48.382;10.850;2024-03-23T06:18:05;19.30;1.00
19365;DHT22;9818;48.382;10.850;2024-03-23T06:20:31;19.30;1.00
19365;DHT22;9818;48.382;10.850;2024-03-23T06:23:00;19.30;1.00
19365;DHT22;9818;48.382;10.850;2024-03-23T06:25:26;19.30;1.00
19365;DHT22;9818;48.382;10.850;2024-03-23T06:27:53;19.30;1.00
19365;DHT22;9818;48.382;10.850;2024-03-23T06:30:19;19.30;1.00
19365;DHT22;9818;48.382;10.850;2024-03-23T06:32:45;19.30;1.00
19365;DHT22;9818;48.382;10.850;2024-03-23T06:35:11;19.30;1.00
19365;DHT22;9818;48.382;10.850;2024-03-23T06:37:37;19.30;1.00
19365;DHT22;9818;48.382;10.850;2024-03-23T06:40:08;19.30;1.00
19365;DHT22;9818;48.382;10.850;2024-03-23T06:42:34;19.30;1.00
19365;DHT22;9818;48.382;10.850;2024-03-23T06:45:01;19.30;1.00
19365;DHT22;9818;48.382;10.850;2024-03-23T06:47:27;19.30;1.00
19365;DHT22;9818;48.382;10.850;2024-03-23T06:49:53;19.30;1.00
19365;DHT22;9818;48.382;10.850;2024-03-23T06:52:19;19.30;1.00
19365;DHT22;9818;48.382;10.850;2024-03-23T06:54:45;19.30;1.00
19365;DHT22;9818;48.382;10.850;2024-03-23T06:57:14;19.30;1.00
19365;DHT22;9818;48.382;10.850;2024-03-23T06:59:40;19.30;1.00
19365;DHT22;9818;48.382;10.850;2024-03-23T07:02:06;19.20;1.00
19365;DHT22;9818;48.382;10.850;2024-03-23T07:04:32;19.30;1.00
19365;DHT22;9818;48.382;10.850;2024-03-23T07:06:59;19.20;1.00
19365;DHT22;9818;48.382;10.850;2024-03-23T07:09:25;19.20;1.00
19365;DHT22;9818;48.382;10.850;2024-03-23T07:11:54;19.20;1.00
19365;DHT22;9818;48.382;10.850;2024-03-23T07:14:23;19.20;1.00
19365;DHT22;9818;48.382;10.850;2024-03-23T07:16:50;19.20;1.00
19365;DHT22;9818;48.382;10.850;2024-03-23T07:19:16;19.20;1.00
19365;DHT22;9818;48.382;10.850;2024-03-23T07:21:42;19.20;1.00
19365;DHT22;9818;48.382;10.850;2024-03-23T07:24:09;19.20;1.00
19365;DHT22;9818;48.382;10.850;2024-03-23T07:26:35;19.20;1.00
19365;DHT22;9818;48.382;10.850;2024-03-23T07:29:01;19.20;1.00
19365;DHT22;9818;48.382;10.850;2024-03-23T07:31:30;19.20;1.00
19365;DHT22;9818;48.382;10.850;2024-03-23T07:33:56;19.20;1.00
19365;DHT22;9818;48.382;10.850;2024-03-23T07:36:23;19.20;1.00
19365;DHT22;9818;48.382;10.850;2024-03-23T07:38:49;19.20;1.00
19365;DHT22;9818;48.382;10.850;2024-03-23T07:41:17;19.20;1.00
19365;DHT22;9818;48.382;10.850;2024-03-23T07:43:43;19.20;1.00
19365;DHT22;9818;48.382;10.850;2024-03-23T07:46:10;19.20;1.00
19365;DHT22;9818;48.382;10.850;2024-03-23T07:48:39;19.20;1.00
19365;DHT22;9818;48.382;10.850;2024-03-23T07:51:07;19.20;1.00
19365;DHT22;9818;48.382;10.850;2024-03-23T07:53:33;19.20;1.00
19365;DHT22;9818;48.382;10.850;2024-03-23T07:56:01;19.20;1.00
19365;DHT22;9818;48.382;10.850;2024-03-23T07:58:28;19.20;1.00
19365;DHT22;9818;48.382;10.850;2024-03-23T08:00:54;19.20;1.00
19365;DHT22;9818;48.382;10.850;2024-03-23T08:03:21;19.20;1.00
19365;DHT22;9818;48.382;10.850;2024-03-23T08:05:50;19.20;1.00
19365;DHT22;9818;48.382;10.850;2024-03-23T08:08:16;19.20;1.00
19365;DHT22;9818;48.382;10.850;2024-03-23T08:10:50;19.20;1.00
19365;DHT22;9818;48.382;10.850;2024-03-23T08:13:16;19.20;1.00
19365;DHT22;9818;48.382;10.850;2024-03-23T08:15:43;19.30;1.00
19365;DHT22;9818;48.382;10.850;2024-03-23T08:18:10;19.30;1.00
19365;DHT22;9818;48.382;10.850;2024-03-23T08:20:36;19.30;1.00
19365;DHT22;9818;48.382;10.850;2024-03-23T08:23:06;19.30;1.00
19365;DHT22;9818;48.382;10.850;2024-03-23T08:25:32;19.40;1.00
19365;DHT22;9818;48.382;10.850;2024-03-23T08:27:59;19.40;1.00
19365;DHT22;9818;48.382;10.850;2024-03-23T08:30:25;19.40;1.00
19365;DHT22;9818;48.382;10.850;2024-03-23T08:32:51;19.40;1.00
19365;DHT22;9818;48.382;10.850;2024-03-23T08:35:18;19.40;1.00
19365;DHT22;9818;48.382;10.850;2024-03-23T08:37:44;19.40;1.00
19365;DHT22;9818;48.382;10.850;2024-03-23T08:40:13;19.40;1.00
19365;DHT22;9818;48.382;10.850;2024-03-23T08:42:39;19.50;1.00
19365;DHT22;9818;48.382;10.850;2024-03-23T08:45:06;19.50;1.00
19365;DHT22;9818;48.382;10.850;2024-03-23T08:47:34;19.50;1.00
19365;DHT22;9818;48.382;10.850;2024-03-23T08:50:01;19.50;1.00
19365;DHT22;9818;48.382;10.850;2024-03-23T08:52:27;19.50;1.00
19365;DHT22;9818;48.382;10.850;2024-03-23T08:54:54;19.50;1.00
19365;DHT22;9818;48.382;10.850;2024-03-23T08:57:23;19.50;1.00
19365;DHT22;9818;48.382;10.850;2024-03-23T08:59:49;19.60;1.00
19365;DHT22;9818;48.382;10.850;2024-03-23T09:02:15;19.60;1.00
19365;DHT22;9818;48.382;10.850;2024-03-23T09:04:41;19.50;1.00
19365;DHT22;9818;48.382;10.850;2024-03-23T09:07:08;19.50;1.00
19365;DHT22;9818;48.382;10.850;2024-03-23T09:09:34;19.50;1.00
19365;DHT22;9818;48.382;10.850;2024-03-23T09:12:00;19.50;1.00
19365;DHT22;9818;48.382;10.850;2024-03-23T09:14:29;19.50;1.00
19365;DHT22;9818;48.382;10.850;2024-03-23T09:16:55;19.50;1.00
19365;DHT22;9818;48.382;10.850;2024-03-23T09:19:21;19.50;1.00
19365;DHT22;9818;48.382;10.850;2024-03-23T09:21:48;19.50;1.00
19365;DHT22;9818;48.382;10.850;2024-03-23T09:24:15;19.50;1.00
19365;DHT22;9818;48.382;10.850;2024-03-23T09:26:41;19.50;1.00
19365;DHT22;9818;48.382;10.850;2024-03-23T09:29:07;19.40;1.00
19365;DHT22;9818;48.382;10.850;2024-03-23T09:31:36;19.40;1.00
19365;DHT22;9818;48.382;10.850;2024-03-23T09:34:02;19.40;1.00
19365;DHT22;9818;48.382;10.850;2024-03-23T09:36:28;19.40;1.00
19365;DHT22;9818;48.382;10.850;2024-03-23T09:38:54;19.40;1.00
19365;DHT22;9818;48.382;10.850;2024-03-23T09:41:21;19.40;99.90
19365;DHT22;9818;48.382;10.850;2024-03-23T09:43:47;19.40;1.00
19365;DHT22;9818;48.382;10.850;2024-03-23T09:46:14;19.40;1.00
19365;DHT22;9818;48.382;10.850;2024-03-23T09:48:43;19.40;1.00
19365;DHT22;9818;48.382;10.850;2024-03-23T09:51:12;19.40;1.00
19365;DHT22;9818;48.382;10.850;2024-03-23T09:53:38;19.40;1.00
19365;DHT22;9818;48.382;10.850;2024-03-23T09:56:05;19.40;1.00
19365;DHT22;9818;48.382;10.850;2024-03-23T09:58:31;19.40;1.00
19365;DHT22;9818;48.382;10.850;2024-03-23T10:00:58;19.40;1.00
19365;DHT22;9818;48.382;10.850;2024-03-23T10:03:24;19.40;1.00
19365;DHT22;9818;48.382;10.850;2024-03-23T10:06:02;19.40;1.00
19365;DHT22;9818;48.382;10.850;2024-03-23T10:08:29;19.40;1.00
19365;DHT22;9818;48.382;10.850;2024-03-23T10:10:55;19.40;1.00
19365;DHT22;9818;48.382;10.850;2024-03-23T10:13:26;19.40;1.00
19365;DHT22;9818;48.382;10.850;2024-03-23T10:15:56;19.40;1.00
19365;DHT22;9818;48.382;10.850;2024-03-23T10:18:23;19.40;1.00
19365;DHT22;9818;48.382;10.850;2024-03-23T10:20:51;19.40;1.00
19365;DHT22;9818;48.382;10.850;2024-03-23T10:23:23;19.40;1.00
19365;DHT22;9818;48.382;10.850;2024-03-23T10:25:49;19.30;1.00
19365;DHT22;9818;48.382;10.850;2024-03-23T10:28:15;19.20;99.90
19365;DHT22;9818;48.382;10.850;2024-03-23T10:30:41;19.20;99.90
19365;DHT22;9818;48.382;10.850;2024-03-23T10:33:08;19.20;1.00
19365;DHT22;9818;48.382;10.850;2024-03-23T10:35:34;19.20;99.90
19365;DHT22;9818;48.382;10.850;2024-03-23T10:38:02;19.20;1.00
19365;DHT22;9818;48.382;10.850;2024-03-23T10:40:31;19.20;1.00
19365;DHT22;9818;48.382;10.850;2024-03-23T10:42:58;19.20;1.00
19365;DHT22;9818;48.382;10.850;2024-03-23T10:45:24;19.30;1.00
19365;DHT22;9818;48.382;10.850;2024-03-23T10:47:51;19.30;1.00
19365;DHT22;9818;48.382;10.850;2024-03-23T10:50:18;19.30;1.00
19365;DHT22;9818;48.382;10.850;2024-03-23T10:52:47;19.20;1.00
19365;DHT22;9818;48.382;10.850;2024-03-23T10:55:15;19.30;1.00
19365;DHT22;9818;48.382;10.850;2024-03-23T10:57:49;19.30;1.00
19365;DHT22;9818;48.382;10.850;2024-03-23T11:00:16;19.30;1.00
19365;DHT22;9818;48.382;10.850;2024-03-23T11:02:43;19.30;1.00
19365;DHT22;9818;48.382;10.850;2024-03-23T11:05:28;19.20;1.00
19365;DHT22;9818;48.382;10.850;2024-03-23T11:07:54;19.20;1.00
19365;DHT22;9818;48.382;10.850;2024-03-23T11:10:27;19.30;1.00
19365;DHT22;9818;48.382;10.850;2024-03-23T11:12:57;19.30;1.00
19365;DHT22;9818;48.382;10.850;2024-03-23T11:15:23;19.30;1.00
19365;DHT22;9818;48.382;10.850;2024-03-23T11:18:06;19.30;1.00
19365;DHT22;9818;48.382;10.850;2024-03-23T11:20:34;19.30;1.00
19365;DHT22;9818;48.382;10.850;2024-03-23T11:23:01;19.30;1.00
19365;DHT22;9818;48.382;10.850;2024-03-23T11:25:28;19.30;1.00
19365;DHT22;9818;48.382;10.850;2024-03-23T11:27:58;19.30;1.00
19365;DHT22;9818;48.382;10.850;2024-03-23T11:30:35;19.30;1.00
19365;DHT22;9818;48.382;10.850;2024-03-23T11:33:02;19.30;1.00
19365;DHT22;9818;48.382;10.850;2024-03-23T11:35:29;19.30;1.00
19365;DHT22;9818;48.382;10.850;2024-03-23T11:38:07;19.30;1.00
19365;DHT22;9818;48.382;10.850;2024-03-23T11:40:34;19.30;1.00
19365;DHT22;9818;48.382;10.850;2024-03-23T11:43:04;19.30;1.00
19365;DHT22;9818;48.382;10.850;2024-03-23T11:45:34;19.20;1.00
19365;DHT22;9818;48.382;10.850;2024-03-23T11:48:08;19.30;1.00
19365;DHT22;9818;48.382;10.850;2024-03-23T11:50:37;19.30;1.00
19365;DHT22;9818;48.382;10.850;2024-03-23T11:53:08;19.30;1.00
19365;DHT22;9818;48.382;10.850;2024-03-23T11:55:41;19.30;1.00
19365;DHT22;9818;48.382;10.850;2024-03-23T11:58:10;19.30;1.00
19365;DHT22;9818;48.382;10.850;2024-03-23T12:00:36;19.30;1.00
19365;DHT22;9818;48.382;10.850;2024-03-23T12:03:02;19.30;1.00
19365;DHT22;9818;48.382;10.850;2024-03-23T12:05:29;19.30;1.00
19365;DHT22;9818;48.382;10.850;2024-03-23T12:07:56;19.30;1.00
19365;DHT22;9818;48.382;10.850;2024-03-23T12:10:40;19.30;1.00
19365;DHT22;9818;48.382;10.850;2024-03-23T12:13:09;19.40;1.00
19365;DHT22;9818;48.382;10.850;2024-03-23T12:15:36;19.40;1.00
19365;DHT22;9818;48.382;10.850;2024-03-23T12:18:08;19.40;1.00
19365;DHT22;9818;48.382;10.850;2024-03-23T12:20:34;19.50;1.00
19365;DHT22;9818;48.382;10.850;2024-03-23T12:23:08;19.60;1.00
19365;DHT22;9818;48.382;10.850;2024-03-23T12:25:35;19.60;1.00
19365;DHT22;9818;48.382;10.850;2024-03-23T12:28:01;19.60;1.00
19365;DHT22;9818;48.382;10.850;2024-03-23T12:30:30;19.60;1.00
19365;DHT22;9818;48.382;10.850;2024-03-23T12:32:56;19.60;1.00
19365;DHT22;9818;48.382;10.850;2024-03-23T12:35:22;19.50;99.90
19365;DHT22;9818;48.382;10.850;2024-03-23T12:37:48;19.60;1.00
19365;DHT22;9818;48.382;10.850;2024-03-23T12:40:15;19.60;1.00
19365;DHT22;9818;48.382;10.850;2024-03-23T12:42:41;19.60;1.00
19365;DHT22;9818;48.382;10.850;2024-03-23T12:45:08;19.60;1.00
19365;DHT22;9818;48.382;10.850;2024-03-23T12:47:37;19.60;1.00
19365;DHT22;9818;48.382;10.850;2024-03-23T12:50:04;19.60;1.00
19365;DHT22;9818;48.382;10.850;2024-03-23T12:52:31;19.60;1.00
19365;DHT22;9818;48.382;10.850;2024-03-23T12:54:57;19.70;1.00
19365;DHT22;9818;48.382;10.850;2024-03-23T12:57:23;19.70;1.00
19365;DHT22;9818;48.382;10.850;2024-03-23T12:59:50;19.70;1.00
19365;DHT22;9818;48.382;10.850;2024-03-23T13:02:17;19.70;1.00
19365;DHT22;9818;48.382;10.850;2024-03-23T13:04:46;19.70;1.00
19365;DHT22;9818;48.382;10.850;2024-03-23T13:07:13;19.70;1.00
19365;DHT22;9818;48.382;10.850;2024-03-23T13:09:39;19.70;1.00
19365;DHT22;9818;48.382;10.850;2024-03-23T13:12:06;19.70;1.00
19365;DHT22;9818;48.382;10.850;2024-03-23T13:14:32;19.70;1.00
19365;DHT22;9818;48.382;10.850;2024-03-23T13:16:59;19.70;1.00
19365;DHT22;9818;48.382;10.850;2024-03-23T13:19:25;19.70;1.00
19365;DHT22;9818;48.382;10.850;2024-03-23T13:21:54;19.70;1.00
19365;DHT22;9818;48.382;10.850;2024-03-23T13:24:22;19.70;1.00
19365;DHT22;9818;48.382;10.850;2024-03-23T13:26:50;19.70;1.00
19365;DHT22;9818;48.382;10.850;2024-03-23T13:29:16;19.70;1.00
19365;DHT22;9818;48.382;10.850;2024-03-23T13:31:42;19.70;1.00
19365;DHT22;9818;48.382;10.850;2024-03-23T13:34:09;19.70;1.00
19365;DHT22;9818;48.382;10.850;2024-03-23T13:36:35;19.70;1.00
19365;DHT22;9818;48.382;10.850;2024-03-23T13:39:04;19.70;1.00
19365;DHT22;9818;48.382;10.850;2024-03-23T13:41:30;19.70;1.00
19365;DHT22;9818;48.382;10.850;2024-03-23T13:43:57;19.70;1.00
19365;DHT22;9818;48.382;10.850;2024-03-23T13:46:23;19.70;1.00
19365;DHT22;9818;48.382;10.850;2024-03-23T13:48:49;19.70;1.00
19365;DHT22;9818;48.382;10.850;2024-03-23T13:51:15;19.70;1.00
19365;DHT22;9818;48.382;10.850;2024-03-23T13:53:48;19.70;1.00
19365;DHT22;9818;48.382;10.850;2024-03-23T13:56:17;19.70;1.00
19365;DHT22;9818;48.382;10.850;2024-03-23T13:58:43;19.70;1.00
19365;DHT22;9818;48.382;10.850;2024-03-23T14:01:11;19.70;1.00
19365;DHT22;9818;48.382;10.850;2024-03-23T14:03:37;19.70;1.00
19365;DHT22;9818;48.382;10.850;2024-03-23T14:06:04;19.70;1.00
19365;DHT22;9818;48.382;10.850;2024-03-23T14:08:30;19.70;1.00
19365;DHT22;9818;48.382;10.850;2024-03-23T14:10:56;19.70;1.00
19365;DHT22;9818;48.382;10.850;2024-03-23T14:13:25;19.70;1.00
19365;DHT22;9818;48.382;10.850;2024-03-23T14:15:53;19.70;1.00
19365;DHT22;9818;48.382;10.850;2024-03-23T14:18:19;19.70;1.00
19365;DHT22;9818;48.382;10.850;2024-03-23T14:20:45;19.70;1.00
19365;DHT22;9818;48.382;10.850;2024-03-23T14:23:11;19.70;1.00
19365;DHT22;9818;48.382;10.850;2024-03-23T14:25:37;19.70;1.00
19365;DHT22;9818;48.382;10.850;2024-03-23T14:28:04;19.70;1.00
19365;DHT22;9818;48.382;10.850;2024-03-23T14:30:33;19.70;1.00
19365;DHT22;9818;48.382;10.850;2024-03-23T14:32:59;19.70;1.00
19365;DHT22;9818;48.382;10.850;2024-03-23T14:35:25;19.80;1.00
19365;DHT22;9818;48.382;10.850;2024-03-23T14:37:51;19.80;1.00
19365;DHT22;9818;48.382;10.850;2024-03-23T14:40:17;19.80;1.00
19365;DHT22;9818;48.382;10.850;2024-03-23T14:42:44;19.80;1.00
19365;DHT22;9818;48.382;10.850;2024-03-23T14:45:10;19.80;1.00
19365;DHT22;9818;48.382;10.850;2024-03-23T14:47:38;19.80;1.00
19365;DHT22;9818;48.382;10.850;2024-03-23T14:50:05;19.80;1.00
19365;DHT22;9818;48.382;10.850;2024-03-23T14:52:32;19.80;1.00
19365;DHT22;9818;48.382;10.850;2024-03-23T14:54:58;19.80;1.00
19365;DHT22;9818;48.382;10.850;2024-03-23T14:57:24;19.80;1.00
19365;DHT22;9818;48.382;10.850;2024-03-23T14:59:50;19.80;1.00
19365;DHT22;9818;48.382;10.850;2024-03-23T15:02:17;19.80;1.00
19365;DHT22;9818;48.382;10.850;2024-03-23T15:04:46;19.80;1.00
19365;DHT22;9818;48.382;10.850;2024-03-23T15:07:12;19.80;1.00
19365;DHT22;9818;48.382;10.850;2024-03-23T15:09:38;19.80;1.00
19365;DHT22;9818;48.382;10.850;2024-03-23T15:12:05;19.80;1.00
19365;DHT22;9818;48.382;10.850;2024-03-23T15:14:32;19.80;1.00
19365;DHT22;9818;48.382;10.850;2024-03-23T15:16:58;19.80;1.00
19365;DHT22;9818;48.382;10.850;2024-03-23T15:19:24;19.80;1.00
19365;DHT22;9818;48.382;10.850;2024-03-23T15:21:54;19.80;1.00
19365;DHT22;9818;48.382;10.850;2024-03-23T15:24:20;19.80;1.00
19365;DHT22;9818;48.382;10.850;2024-03-23T15:26:46;19.80;1.00
19365;DHT22;9818;48.382;10.850;2024-03-23T15:29:12;19.80;1.00
19365;DHT22;9818;48.382;10.850;2024-03-23T15:31:38;19.80;1.00
19365;DHT22;9818;48.382;10.850;2024-03-23T15:34:04;19.70;99.90
19365;DHT22;9818;48.382;10.850;2024-03-23T15:36:31;19.80;99.90
19365;DHT22;9818;48.382;10.850;2024-03-23T15:39:00;19.80;99.90
19365;DHT22;9818;48.382;10.850;2024-03-23T15:41:26;19.80;99.90
19365;DHT22;9818;48.382;10.850;2024-03-23T15:43:52;19.80;99.90
19365;DHT22;9818;48.382;10.850;2024-03-23T15:46:18;19.70;99.90
19365;DHT22;9818;48.382;10.850;2024-03-23T15:48:45;19.70;99.90
19365;DHT22;9818;48.382;10.850;2024-03-23T15:51:12;19.70;99.90
19365;DHT22;9818;48.382;10.850;2024-03-23T15:53:38;19.70;99.90
19365;DHT22;9818;48.382;10.850;2024-03-23T15:56:07;19.70;99.90
19365;DHT22;9818;48.382;10.850;2024-03-23T15:58:33;19.70;99.90
19365;DHT22;9818;48.382;10.850;2024-03-23T16:01:01;19.70;99.90
19365;DHT22;9818;48.382;10.850;2024-03-23T16:03:28;19.70;99.90
19365;DHT22;9818;48.382;10.850;2024-03-23T16:05:55;19.70;99.90
19365;DHT22;9818;48.382;10.850;2024-03-23T16:08:22;19.70;99.90
19365;DHT22;9818;48.382;10.850;2024-03-23T16:10:48;19.70;99.90
19365;DHT22;9818;48.382;10.850;2024-03-23T16:13:17;19.70;99.90
19365;DHT22;9818;48.382;10.850;2024-03-23T16:15:44;19.70;99.90
19365;DHT22;9818;48.382;10.850;2024-03-23T16:18:10;19.70;99.90
19365;DHT22;9818;48.382;10.850;2024-03-23T16:20:37;19.60;99.90
19365;DHT22;9818;48.382;10.850;2024-03-23T16:23:03;19.60;99.90
19365;DHT22;9818;48.382;10.850;2024-03-23T16:25:30;19.60;99.90
19365;DHT22;9818;48.382;10.850;2024-03-23T16:27:56;19.60;99.90
19365;DHT22;9818;48.382;10.850;2024-03-23T16:30:25;19.60;99.90
19365;DHT22;9818;48.382;10.850;2024-03-23T16:32:51;19.60;99.90
19365;DHT22;9818;48.382;10.850;2024-03-23T16:35:17;19.60;99.90